createdAt,value
2023-03-21T00:03:34.298Z,100453.14
2023-03-21T00:08:39.821Z,100446.52
2023-03-21T00:13:45.498Z,100442.29
2023-03-21T00:18:53.543Z,100443.05
2023-03-21T00:24:00.579Z,100443.16
2023-03-21T00:29:06.515Z,100434.84
2023-03-21T00:39:18.503Z,100430.99
2023-03-21T00:44:25.671Z,100429.96
2023-03-21T00:49:38.178Z,100429.81
2023-03-21T00:54:43.853Z,100433.11
2023-03-21T00:59:49.201Z,100429.64
2023-03-21T01:04:54.876Z,100428.83
2023-03-21T01:10:00.391Z,100426.46
2023-03-21T01:15:07.158Z,100424.04
2023-03-21T01:20:14.533Z,100422.66
2023-03-21T01:25:22.694Z,100422.08
2023-03-21T01:30:33.994Z,100418.05
2023-03-21T01:35:50.391Z,100416.07
2023-03-21T01:41:08.640Z,100414.54
2023-03-21T01:46:45.407Z,100413.26
2023-03-21T01:52:29.802Z,100410.27
2023-03-21T01:58:04.272Z,100406.86
2023-03-21T02:03:23.679Z,100404.00
2023-03-21T02:09:04.623Z,100398.40
2023-03-21T02:14:26.585Z,100403.86
2023-03-21T02:20:13.284Z,100401.98
2023-03-21T02:25:43.827Z,100400.91
2023-03-21T02:31:14.542Z,100405.38
2023-03-21T02:36:34.124Z,100402.81
2023-03-21T02:41:47.606Z,100398.94
2023-03-21T02:47:06.046Z,100403.88
2023-03-21T02:52:35.473Z,100402.98
2023-03-21T02:57:52.734Z,100405.75
2023-03-21T03:03:08.780Z,100404.52
2023-03-21T03:08:43.252Z,100404.00
2023-03-21T03:14:22.730Z,100409.46
2023-03-21T03:19:49.704Z,100416.96
2023-03-21T03:25:12.585Z,100416.09
2023-03-21T03:30:39.289Z,100421.98
2023-03-21T03:36:02.582Z,100423.08
2023-03-21T03:41:19.525Z,100425.83
2023-03-21T03:46:41.256Z,100425.13
2023-03-21T03:51:53.088Z,100424.48
2023-03-21T03:57:12.526Z,100427.44
2023-03-21T04:02:20.422Z,100425.54
2023-03-21T04:07:27.970Z,100431.26
2023-03-21T04:12:35.880Z,100432.85
2023-03-21T04:17:59.998Z,100433.56
2023-03-21T04:23:06.233Z,100432.70
2023-03-21T04:28:12.078Z,100435.66
2023-03-21T04:33:25.992Z,100432.80
2023-03-21T04:38:34.875Z,100427.25
2023-03-21T04:43:41.714Z,100430.14
2023-03-21T04:48:47.651Z,100432.59
2023-03-21T04:53:57.435Z,100435.39
2023-03-21T04:59:08.279Z,100439.35
2023-03-21T05:04:14.449Z,100445.57
2023-03-21T05:09:22.252Z,100448.14
2023-03-21T05:14:28.499Z,100446.62
2023-03-21T05:19:40.812Z,100446.41
2023-03-21T05:24:50.470Z,100451.17
2023-03-21T05:30:14.327Z,100452.30
2023-03-21T05:35:20.904Z,100450.59
2023-03-21T05:40:26.632Z,100456.65
2023-03-21T05:45:34.934Z,100460.80
2023-03-21T05:50:41.589Z,100465.11
2023-03-21T05:55:54.713Z,100470.73
2023-03-21T06:01:19.266Z,100473.90
2023-03-21T06:06:30.493Z,100480.87
2023-03-21T06:11:42.158Z,100486.86
2023-03-21T06:17:06.281Z,100494.14
2023-03-21T06:22:14.844Z,100498.00
2023-03-21T06:27:20.836Z,100501.05
2023-03-21T06:32:36.245Z,100499.40
2023-03-21T06:37:49.454Z,100503.36
2023-03-21T06:42:55.904Z,100502.50
2023-03-21T06:48:01.637Z,100506.08
2023-03-21T06:53:24.523Z,100510.36
2023-03-21T06:58:56.107Z,100514.27
2023-03-21T07:04:15.845Z,100514.23
2023-03-21T07:09:24.645Z,100522.91
2023-03-21T07:14:32.032Z,100526.29
2023-03-21T07:19:37.629Z,100531.33
2023-03-21T07:24:43.097Z,100530.84
2023-03-21T07:29:50.431Z,100527.34
2023-03-21T07:34:56.676Z,100525.85
2023-03-21T07:40:02.144Z,100530.73
2023-03-21T07:45:10.823Z,100532.48
2023-03-21T07:50:17.507Z,100529.86
2023-03-21T07:55:23.480Z,100531.52
2023-03-21T08:00:29.292Z,100530.52
2023-03-21T08:05:38.518Z,100537.17
2023-03-21T08:10:45.551Z,100541.30
2023-03-21T08:15:51.038Z,100547.92
2023-03-21T08:20:58.422Z,100550.77
2023-03-21T08:26:03.961Z,100552.94
2023-03-21T08:31:11.800Z,100552.02
2023-03-21T08:36:17.424Z,100548.25
2023-03-21T08:41:24.561Z,100549.46
2023-03-21T08:46:30.981Z,100547.35
2023-03-21T08:51:38.091Z,100556.36
2023-03-21T08:56:43.507Z,100561.16
2023-03-21T09:01:49.522Z,100564.42
2023-03-21T09:06:56.339Z,100567.69
2023-03-21T09:12:01.945Z,100567.41
2023-03-21T09:17:07.519Z,100576.42
2023-03-21T09:22:14.285Z,100580.38
2023-03-21T09:27:25.457Z,100580.58
2023-03-21T09:32:29.856Z,100591.14
2023-03-21T09:37:38.284Z,100594.59
2023-03-21T09:42:52.420Z,100597.08
2023-03-21T09:47:58.340Z,100597.52
2023-03-21T09:53:10.595Z,100595.77
2023-03-21T09:58:26.174Z,100595.55
2023-03-21T10:03:36.396Z,100595.93
2023-03-21T10:08:43.276Z,100595.27
2023-03-21T10:13:53.697Z,100598.52
2023-03-21T10:19:02.824Z,100598.77
2023-03-21T10:24:12.076Z,100599.10
2023-03-21T10:29:22.462Z,100606.54
2023-03-21T10:34:33.019Z,100613.00
2023-03-21T10:39:40.204Z,100614.85
2023-03-21T10:44:49.444Z,100618.02
2023-03-21T10:50:11.319Z,100616.56
2023-03-21T10:55:25.852Z,100615.10
2023-03-21T11:00:38.721Z,100614.52
2023-03-21T11:05:44.936Z,100609.42
2023-03-21T11:10:55.196Z,100608.80
2023-03-21T11:16:08.150Z,100606.27
2023-03-21T11:21:15.590Z,100612.12
2023-03-21T11:26:27.686Z,100608.98
2023-03-21T11:31:44.898Z,100601.30
2023-03-21T11:36:53.191Z,100602.02
2023-03-21T11:41:58.871Z,100597.54
2023-03-21T11:47:04.511Z,100595.00
2023-03-21T11:52:23.356Z,100592.60
2023-03-21T11:57:39.954Z,100589.36
2023-03-21T12:03:17.999Z,100587.93
2023-03-21T12:08:40.220Z,100592.29
2023-03-21T12:13:58.701Z,100585.71
2023-03-21T12:19:18.237Z,100586.77
2023-03-21T12:24:26.907Z,100580.98
2023-03-21T12:29:46.231Z,100581.79
2023-03-21T12:35:08.396Z,100577.46
2023-03-21T12:40:22.652Z,100575.41
2023-03-21T12:45:45.748Z,100566.70
2023-03-21T12:50:54.734Z,100564.71
2023-03-21T12:56:05.213Z,100566.27
2023-03-21T13:01:12.966Z,100565.16
2023-03-21T13:06:22.730Z,100567.52
2023-03-21T13:11:31.370Z,100569.78
2023-03-21T13:16:41.186Z,100582.61
2023-03-21T13:21:57.241Z,100582.56
2023-03-21T13:27:07.140Z,100583.64
2023-03-21T13:32:23.255Z,100583.13
2023-03-21T13:37:32.897Z,100575.10
2023-03-21T13:42:45.973Z,100572.50
2023-03-21T13:47:56.738Z,100572.59
2023-03-21T13:53:23.911Z,100575.77
2023-03-21T13:58:38.028Z,100571.09
2023-03-21T14:03:44.797Z,100572.41
2023-03-21T14:08:50.931Z,100565.48
2023-03-21T14:13:59.223Z,100560.40
2023-03-21T14:19:06.490Z,100557.30
2023-03-21T14:24:16.635Z,100560.48
2023-03-21T14:29:31.616Z,100562.66
2023-03-21T14:34:38.743Z,100560.89
2023-03-21T14:39:44.250Z,100553.42
2023-03-21T14:44:55.390Z,100547.96
2023-03-21T14:50:02.016Z,100550.01
2023-03-21T14:55:16.238Z,100543.96
2023-03-21T15:00:26.453Z,100544.81
2023-03-21T15:05:34.731Z,100546.40
2023-03-21T15:10:40.379Z,100546.86
2023-03-21T15:15:46.666Z,100545.39
2023-03-21T15:20:53.596Z,100545.69
2023-03-21T15:26:02.110Z,100544.00
2023-03-21T15:31:17.562Z,100542.35
2023-03-21T15:36:26.390Z,100543.44
2023-03-21T15:41:33.260Z,100544.41
2023-03-21T15:46:48.252Z,100549.02
2023-03-21T15:51:57.648Z,100550.41
2023-03-21T15:57:09.614Z,100548.09
2023-03-21T16:02:19.864Z,100547.48
2023-03-21T16:07:26.570Z,100546.27
2023-03-21T16:12:34.105Z,100544.43
2023-03-21T16:17:41.754Z,100543.75
2023-03-21T16:22:47.609Z,100548.73
2023-03-21T16:27:53.053Z,100548.52
2023-03-21T16:32:58.911Z,100548.22
2023-03-21T16:38:05.503Z,100543.73
2023-03-21T16:43:11.902Z,100544.04
2023-03-21T16:48:18.725Z,100541.30
2023-03-21T16:53:24.245Z,100543.88
2023-03-21T16:58:29.828Z,100545.45
2023-03-21T17:03:35.801Z,100549.94
2023-03-21T17:08:41.660Z,100559.91
2023-03-21T17:13:47.285Z,100572.35
2023-03-21T17:18:53.001Z,100575.95
2023-03-21T17:23:58.621Z,100583.71
2023-03-21T17:29:05.356Z,100585.89
2023-03-21T17:34:11.168Z,100589.49
2023-03-21T17:39:22.611Z,100595.58
2023-03-21T17:44:28.490Z,100595.53
2023-03-21T17:49:33.974Z,100601.99
2023-03-21T17:54:39.833Z,100600.16
2023-03-21T17:59:46.332Z,100603.31
2023-03-21T18:04:52.123Z,100608.33
2023-03-21T18:09:58.229Z,100619.35
2023-03-21T18:15:04.125Z,100629.90
2023-03-21T18:20:14.566Z,100633.51
2023-03-21T18:25:21.075Z,100639.54
2023-03-21T18:30:50.158Z,100643.66
2023-03-21T18:35:59.455Z,100643.14
2023-03-21T18:41:07.684Z,100640.90
2023-03-21T18:46:13.897Z,100641.42
2023-03-21T18:51:20.268Z,100638.65
2023-03-21T19:01:54.353Z,100639.61
2023-03-21T19:07:00.213Z,100639.39
2023-03-21T19:12:06.440Z,100637.61
2023-03-21T19:18:19.340Z,100636.87
2023-03-21T19:22:37.840Z,100635.13
2023-03-21T19:27:44.548Z,100635.05
2023-03-21T19:32:49.987Z,100639.90
2023-03-21T19:37:55.799Z,100638.48
2023-03-21T19:43:18.550Z,100643.85
2023-03-21T19:48:28.055Z,100640.47
2023-03-21T19:53:33.625Z,100647.53
2023-03-21T19:58:39.078Z,100647.81
2023-03-21T20:03:46.057Z,100645.66
2023-03-21T20:14:17.567Z,100650.82
2023-03-21T20:19:24.137Z,100647.20
2023-03-21T20:24:30.416Z,100650.84
2023-03-21T20:35:19.162Z,100668.59
2023-03-21T20:40:26.779Z,100676.18
2023-03-21T20:45:32.873Z,100671.20
2023-03-21T20:50:39.558Z,100669.44
2023-03-21T20:55:46.089Z,100667.48
2023-03-21T21:00:52.606Z,100660.21
2023-03-21T21:05:58.461Z,100653.98
2023-03-21T21:11:53.492Z,100646.09
2023-03-21T21:16:29.571Z,100643.31
2023-03-21T21:21:35.107Z,100641.91
2023-03-21T21:26:46.325Z,100641.85
2023-03-21T21:31:52.193Z,100639.36
2023-03-21T21:36:57.757Z,100641.00
2023-03-21T21:42:03.781Z,100644.86
2023-03-21T21:47:09.216Z,100647.40
2023-03-21T21:52:22.025Z,100646.41
2023-03-21T21:57:27.609Z,100648.34
2023-03-21T22:02:33.144Z,100646.55
2023-03-21T22:07:39.243Z,100649.48
2023-03-21T22:12:44.760Z,100651.11
2023-03-21T22:17:50.451Z,100656.20
2023-03-21T22:22:56.848Z,100650.76
2023-03-21T22:28:02.595Z,100654.56
2023-03-21T22:33:09.924Z,100657.26
2023-03-21T22:38:18.094Z,100657.31
2023-03-21T22:43:23.732Z,100660.19
2023-03-21T22:48:32.444Z,100660.14
2023-03-21T22:53:37.897Z,100651.58
2023-03-21T22:58:43.245Z,100647.08
2023-03-21T23:03:48.807Z,100647.92
2023-03-21T23:08:54.283Z,100645.76
2023-03-21T23:14:07.753Z,100646.95
2023-03-21T23:19:13.984Z,100645.24
2023-03-21T23:24:20.052Z,100643.20
2023-03-21T23:29:25.510Z,100645.65
2023-03-21T23:34:32.380Z,100646.66
2023-03-21T23:39:38.563Z,100645.83
2023-03-21T23:44:44.331Z,100646.17
2023-03-21T23:49:52.869Z,100638.67
2023-03-21T23:54:58.281Z,100638.23
